Rogers, AR (72756)

11:55 AM CDT on August 30, 2014 (GMT -0500)
Little Flock | Change Station
CLOSE
Current Station
Personal Weather Station
Location: Little Flock, AR
Elevation: 1293 ft
Nearby Weather Stations

Elev 1293 ft 36.39 °N, 94.14 °W | Updated 1 minute ago

Scattered Clouds
Scattered Clouds
80.7 °F
Feels Like 85 °F
N
2.0
Wind Variable Wind from SSW
Gusts 0.0 mph

Today
High -- | Low -- °F
--% Chance of Precip.
Yesterday
High -- | Low -- °F
Precip. -- in
6:46 AM 7:46 PM
Waxing Crescent, 23% visible
Pressure 30.02 in
Visibility 10.0 miles
Clouds Scattered Clouds 2000 ft
Heat Index 85 °F
Dew Point 72 °F
Humidity 75%
Rainfall 0.27 in
Snow Depth Not available.
UV 7 out of 12
Pollen 8.70 out of 12
Air Quality Not available.
Flu Activity Not available.
SPECI KROG 301627Z AUTO 19012KT 10SM SCT020 27/21 A3002 RMK AO2

More Conditions Fewer Conditions

Pressure 30.02 in
Visibility 10.0 miles
Clouds Scattered Clouds 2000 ft
Heat Index 85 °F
Dew Point 72 °F
Humidity 75%
Rainfall 0.27 in
Snow Depth Not available.
UV 7 out of 12
Pollen 8.70 out of 12
Air Quality Not available.
Flu Activity Not available.
SPECI KROG 301627Z AUTO 19012KT 10SM SCT020 27/21 A3002 RMK AO2

More Conditions Fewer Conditions

Nowcast | as of 10:27 am CDT on August 30, 2014

At 10:27 am...weather radars detected a small area of light to moderate showers southeast of a Prairie Grove Arkansas to Stigler Oklahoma line. Movement was to the northeast at 20 mph. Through 12:00 PM...this activity will continue across far eastern Oklahoma and northwest Arkansas. Measurable rainfall will be confined to less than two tenths of an inch.

×

10-Day Weather Forecast

Almanac

Astronomy

Aug. 30, 2014 Rise Set
Actual Time 6:46 AM CDT 7:46 PM CDT
Civil Twilight 6:19 AM CDT 8:13 PM CDT
Nautical Twilight 5:48 AM CDT 8:44 PM CDT
Astronomical Twilight 5:15 AM CDT 9:16 PM CDT
Moon 11:24 AM CDT 10:31 PM CDT
Length of Visible Light 13h 53m
Length of Day
13h 00m
Tomorrow will be 2m 12s shorter.
Waxing Crescent, 23% of the Moon is Illuminated
Today
Waxing Crescent
Sep 2
First Quarter
Sep 8
Full
Sep 15
Last Quarter
Sep 24
New

Today's Extremes

State Highs State Lows

Community

WunderPhotos

Upload Photos

1,748,562 photos uploaded!

WunderBlogs® & News

Nearby

Snow Depth

Station Depth Elevation
No new snow has been reported.

Earthquake Activity

City Distance Mag. Time & Date
No recent earthquake activity has been reported nearby.
Minimum magnitude displayed is 2.5.

Coastal Water Temperatures

Place Temperature
No Stations Reporting

Nearby Weather Stations